Time;durP1;ratioP1;P1;durP2;ratioP2;P2;SDS_P1;SDS_P2;PMS_P1;PMS_P2;Temp;Humidity;BMP_temperature;BMP_pressure;BME280_temperature;BME280_humidity;BME280_pressure;Samples;Min_cycle;Max_cycle;Signal;HPM_P1;HPM_P2
2021/11/11 00:00:50;;;;;;;41.63;25.15;;;2.80;90.00;;;;;;5072932;28;20028;-37
2021/11/11 00:03:17;;;;;;;41.50;26.90;;;2.80;90.00;;;;;;5072645;28;20388;-37
2021/11/11 00:05:43;;;;;;;47.05;27.10;;;2.80;90.00;;;;;;5072770;28;20063;-37
2021/11/11 00:08:09;;;;;;;45.08;26.08;;;2.80;90.00;;;;;;5073198;28;20035;-38
2021/11/11 00:10:36;;;;;;;47.83;25.27;;;2.80;90.10;;;;;;5073149;28;20028;-37
2021/11/11 00:13:03;;;;;;;46.45;28.20;;;2.80;89.90;;;;;;5072891;28;20028;-37
2021/11/11 00:15:29;;;;;;;56.45;25.95;;;2.70;89.80;;;;;;5072742;28;20028;-37
2021/11/11 00:17:55;;;;;;;53.40;27.55;;;2.70;89.90;;;;;;5072690;28;20021;-37
2021/11/11 00:20:24;;;;;;;52.58;29.58;;;2.60;89.90;;;;;;5073150;28;20066;-37
2021/11/11 00:22:50;;;;;;;42.88;24.35;;;2.60;90.00;;;;;;5072274;28;20039;-37
2021/11/11 00:25:18;;;;;;;43.97;24.17;;;2.60;89.90;;;;;;5072995;28;20017;-37
2021/11/11 00:27:45;;;;;;;42.58;23.42;;;2.60;89.90;;;;;;5072697;28;20111;-37
2021/11/11 00:30:13;;;;;;;37.58;22.15;;;2.60;89.90;;;;;;5072592;28;20016;-37
2021/11/11 00:32:40;;;;;;;40.78;21.83;;;2.70;89.90;;;;;;5072791;28;20028;-37
2021/11/11 00:35:10;;;;;;;42.55;23.85;;;2.60;89.60;;;;;;5072818;28;20385;-37
2021/11/11 00:37:36;;;;;;;47.10;24.38;;;2.60;89.70;;;;;;5073021;28;20036;-37
2021/11/11 00:40:04;;;;;;;48.92;25.35;;;2.50;89.40;;;;;;5072826;28;20029;-37
2021/11/11 00:42:29;;;;;;;47.53;25.52;;;2.40;89.50;;;;;;5072479;28;20025;-37
2021/11/11 00:44:55;;;;;;;42.33;24.92;;;2.40;89.60;;;;;;5072350;28;20025;-37
2021/11/11 00:47:21;;;;;;;41.78;23.83;;;2.40;89.70;;;;;;5072492;28;20036;-37
2021/11/11 00:49:49;;;;;;;37.65;21.92;;;2.40;89.60;;;;;;5072611;28;20021;-37
2021/11/11 00:52:15;;;;;;;41.03;23.48;;;2.30;89.70;;;;;;5072803;28;20028;-37
2021/11/11 00:54:42;;;;;;;44.45;24.67;;;2.30;89.80;;;;;;5071027;28;20021;-37
2021/11/11 00:57:08;;;;;;;40.05;24.40;;;2.40;89.80;;;;;;5073162;28;20029;-37
2021/11/11 00:59:34;;;;;;;46.28;23.52;;;2.30;89.60;;;;;;5072200;28;20485;-37
2021/11/11 01:02:02;;;;;;;39.15;22.35;;;2.30;89.70;;;;;;5072287;28;20027;-37
2021/11/11 01:04:28;;;;;;;46.33;24.88;;;2.30;89.80;;;;;;5072701;28;20021;-36
2021/11/11 01:06:54;;;;;;;43.70;22.73;;;2.40;89.80;;;;;;5070740;28;20075;-37
2021/11/11 01:09:20;;;;;;;46.10;24.20;;;2.40;89.80;;;;;;5072420;28;20116;-37
2021/11/11 01:11:46;;;;;;;42.95;22.83;;;2.30;89.70;;;;;;5072150;28;20546;-37
2021/11/11 01:14:11;;;;;;;37.22;23.35;;;2.40;89.70;;;;;;5072060;28;20131;-37
2021/11/11 01:16:37;;;;;;;37.67;22.42;;;2.30;89.70;;;;;;5074274;28;20027;-38
2021/11/11 01:19:03;;;;;;;45.50;22.98;;;2.30;89.80;;;;;;5075631;28;20029;-37
2021/11/11 01:21:28;;;;;;;39.55;21.60;;;2.50;89.70;;;;;;5075687;28;20021;-37
2021/11/11 01:23:54;;;;;;;41.03;22.60;;;2.50;89.40;;;;;;5075569;28;20020;-37
2021/11/11 01:26:21;;;;;;;45.17;21.90;;;2.50;89.00;;;;;;5075826;28;20455;-37
2021/11/11 01:28:47;;;;;;;37.15;20.98;;;2.30;89.10;;;;;;5075545;28;20028;-38
2021/11/11 01:31:12;;;;;;;38.53;20.63;;;2.30;89.30;;;;;;5075481;28;20511;-37
2021/11/11 01:33:38;;;;;;;32.92;20.83;;;2.30;89.50;;;;;;5075635;28;20028;-37
2021/11/11 01:36:05;;;;;;;36.47;20.60;;;2.30;89.60;;;;;;5075462;28;20044;-37
2021/11/11 01:38:31;;;;;;;39.90;21.05;;;2.20;89.50;;;;;;5075630;28;20027;-37
2021/11/11 01:40:57;;;;;;;34.92;19.58;;;2.20;89.60;;;;;;5075295;28;20025;-37
2021/11/11 01:43:23;;;;;;;35.13;20.77;;;2.20;89.50;;;;;;5075306;28;20028;-37
2021/11/11 01:45:49;;;;;;;32.17;18.95;;;2.10;89.60;;;;;;5075472;28;20027;-37
2021/11/11 01:48:17;;;;;;;29.58;17.48;;;2.10;89.70;;;;;;5075705;28;20029;-37
2021/11/11 01:50:44;;;;;;;29.65;16.40;;;2.10;89.80;;;;;;5075111;28;20020;-37
2021/11/11 01:53:11;;;;;;;31.27;16.63;;;2.20;89.90;;;;;;5075587;28;20028;-38
2021/11/11 01:55:42;;;;;;;31.55;17.95;;;2.20;90.00;;;;;;5074995;28;20484;-37
2021/11/11 01:58:08;;;;;;;35.35;19.50;;;2.20;90.00;;;;;;5074188;28;20070;-37
2021/11/11 02:00:47;;;;;;;35.00;18.35;;;2.30;90.10;;;;;;5075036;28;20036;-37
2021/11/11 02:03:14;;;;;;;34.00;21.10;;;2.30;90.00;;;;;;5074973;28;20369;-38
2021/11/11 02:05:40;;;;;;;35.80;20.58;;;2.30;89.50;;;;;;5074702;28;20036;-38
2021/11/11 02:08:07;;;;;;;38.63;18.85;;;2.50;89.10;;;;;;5074876;28;20075;-37
2021/11/11 02:10:34;;;;;;;34.28;19.75;;;2.30;88.80;;;;;;5074516;28;20025;-37
2021/11/11 02:13:02;;;;;;;32.50;19.10;;;2.30;88.90;;;;;;5074537;28;20021;-37
2021/11/11 02:15:28;;;;;;;33.38;19.70;;;2.20;89.10;;;;;;5074671;28;20112;-37
2021/11/11 02:17:54;;;;;;;38.92;21.35;;;2.10;89.20;;;;;;5074639;28;20104;-38
2021/11/11 02:20:32;;;;;;;39.15;20.08;;;1.90;89.10;;;;;;5074685;28;20111;-37
2021/11/11 02:22:59;;;;;;;37.20;20.38;;;1.90;89.30;;;;;;5074318;28;20087;-37
2021/11/11 02:25:26;;;;;;;33.13;18.17;;;1.90;89.40;;;;;;5074284;28;20545;-36
2021/11/11 02:27:59;;;;;;;34.95;19.15;;;1.90;89.50;;;;;;5074509;28;20090;-37
2021/11/11 02:30:27;;;;;;;29.17;16.05;;;2.00;89.70;;;;;;5074535;28;20048;-36
2021/11/11 02:32:53;;;;;;;29.05;15.52;;;2.00;89.70;;;;;;5074882;28;20388;-37
2021/11/11 02:35:19;;;;;;;27.67;16.08;;;2.00;89.80;;;;;;5074344;28;20495;-37
2021/11/11 02:37:45;;;;;;;34.95;15.60;;;2.00;89.90;;;;;;5074422;28;20032;-36
2021/11/11 02:40:17;;;;;;;26.45;14.27;;;2.00;89.90;;;;;;5074063;28;20354;-37
2021/11/11 02:42:43;;;;;;;26.80;13.57;;;2.00;90.00;;;;;;5074053;28;20472;-37
2021/11/11 02:45:13;;;;;;;28.35;15.68;;;2.00;90.20;;;;;;5074203;28;20017;-45
2021/11/11 02:47:39;;;;;;;25.77;13.82;;;2.00;90.40;;;;;;5074220;28;20125;-36
2021/11/11 02:50:06;;;;;;;26.70;15.15;;;2.10;90.40;;;;;;5073842;28;20036;-36
2021/11/11 02:52:32;;;;;;;27.00;14.88;;;2.00;90.50;;;;;;5073808;28;20477;-38
2021/11/11 02:54:58;;;;;;;33.30;16.80;;;2.10;90.50;;;;;;5073815;28;20086;-36
2021/11/11 02:57:32;;;;;;;23.48;13.75;;;2.00;90.40;;;;;;5073804;28;20112;-36
2021/11/11 03:00:03;;;;;;;25.67;15.05;;;2.00;90.40;;;;;;5074035;28;20070;-36
2021/11/11 03:02:34;;;;;;;28.35;15.07;;;2.00;90.30;;;;;;5073718;28;20016;-36
2021/11/11 03:05:01;;;;;;;23.08;13.70;;;1.90;90.40;;;;;;5073852;28;20028;-36
2021/11/11 03:07:27;;;;;;;26.13;14.13;;;1.90;90.40;;;;;;5073494;28;20048;-36
2021/11/11 03:09:53;;;;;;;28.30;14.80;;;1.90;90.50;;;;;;5073572;28;20054;-36
2021/11/11 03:12:20;;;;;;;23.95;15.45;;;1.90;90.50;;;;;;5073499;28;20032;-36
2021/11/11 03:14:47;;;;;;;22.20;14.52;;;1.80;90.50;;;;;;5073503;28;20360;-36
2021/11/11 03:17:13;;;;;;;29.63;16.35;;;1.80;90.50;;;;;;5073330;28;20071;-36
2021/11/11 03:19:40;;;;;;;33.72;16.50;;;1.80;90.50;;;;;;5073435;28;20052;-36
2021/11/11 03:22:12;;;;;;;30.10;15.80;;;1.80;90.40;;;;;;5071952;28;20361;-37
2021/11/11 03:24:39;;;;;;;29.75;18.17;;;1.70;90.10;;;;;;5073561;28;20044;-36
2021/11/11 03:27:07;;;;;;;30.27;19.73;;;1.70;90.10;;;;;;5073208;28;20028;-36
2021/11/11 03:29:33;;;;;;;29.05;17.80;;;1.70;90.10;;;;;;5073192;28;20025;-36
2021/11/11 03:31:59;;;;;;;29.98;19.25;;;1.70;90.00;;;;;;5073132;28;20100;-36
2021/11/11 03:34:24;;;;;;;39.25;19.35;;;1.60;89.90;;;;;;5073454;28;20032;-36
2021/11/11 03:36:52;;;;;;;31.50;17.55;;;1.60;89.90;;;;;;5073236;28;20436;-36
2021/11/11 03:39:19;;;;;;;35.00;18.48;;;1.50;89.90;;;;;;5072375;28;20132;-37
2021/11/11 03:41:48;;;;;;;36.15;20.55;;;1.50;89.80;;;;;;5072929;28;20016;-36
2021/11/11 03:44:15;;;;;;;28.83;17.67;;;1.50;89.70;;;;;;5072993;28;20013;-36
2021/11/11 03:46:42;;;;;;;30.15;17.13;;;1.50;89.80;;;;;;5073389;28;20032;-36
2021/11/11 03:49:08;;;;;;;31.48;17.55;;;1.50;89.90;;;;;;5072840;28;20035;-36
2021/11/11 03:51:34;;;;;;;25.60;14.90;;;1.50;89.90;;;;;;5073162;28;20465;-36
2021/11/11 03:53:59;;;;;;;29.35;18.42;;;1.60;89.90;;;;;;5072909;28;20469;-36
2021/11/11 03:56:25;;;;;;;28.35;15.10;;;1.50;89.90;;;;;;5072966;28;20049;-36
2021/11/11 03:58:51;;;;;;;28.00;14.48;;;1.60;89.80;;;;;;5072848;28;20040;-36
2021/11/11 04:01:17;;;;;;;27.60;15.73;;;1.60;90.00;;;;;;5072755;28;20017;-36
2021/11/11 04:03:43;;;;;;;22.65;13.45;;;1.70;90.00;;;;;;5073081;28;20369;-36
2021/11/11 04:06:09;;;;;;;27.45;15.75;;;1.60;89.90;;;;;;5072681;28;20483;-36
2021/11/11 04:08:34;;;;;;;29.35;14.38;;;1.70;89.90;;;;;;5073176;28;20040;-37
2021/11/11 04:11:01;;;;;;;31.38;16.35;;;1.70;89.80;;;;;;5072871;28;20062;-37
2021/11/11 04:13:28;;;;;;;27.00;16.35;;;1.70;89.90;;;;;;5072751;28;20021;-36
2021/11/11 04:15:54;;;;;;;26.58;16.55;;;1.70;89.40;;;;;;5072720;28;20020;-36
2021/11/11 04:18:20;;;;;;;29.98;16.92;;;1.60;89.40;;;;;;5072749;28;20017;-37
2021/11/11 04:20:46;;;;;;;26.77;15.80;;;1.50;89.50;;;;;;5072943;28;20123;-37
2021/11/11 04:23:12;;;;;;;26.13;16.05;;;1.50;89.50;;;;;;5072651;28;20017;-37
2021/11/11 04:25:46;;;;;;;32.58;15.95;;;1.50;89.60;;;;;;5072970;28;20017;-36
2021/11/11 04:28:22;;;;;;;28.58;16.80;;;1.50;89.70;;;;;;5072997;28;20103;-36
2021/11/11 04:30:52;;;;;;;38.10;16.10;;;1.60;89.70;;;;;;5073036;28;20392;-37
2021/11/11 04:33:20;;;;;;;24.13;15.23;;;1.50;89.70;;;;;;5072834;28;20028;-37
2021/11/11 04:35:51;;;;;;;25.58;15.35;;;1.60;89.60;;;;;;5071549;28;20039;-38
2021/11/11 04:47:23;;;;;;;27.50;16.05;;;1.60;89.60;;;;;;5070754;28;20048;-37
2021/11/11 05:05:16;;;;;;;31.05;16.42;;;1.30;89.50;;;;;;5076042;28;20118;-37
2021/11/11 05:07:42;;;;;;;25.42;15.57;;;1.30;89.10;;;;;;5075878;28;20053;-37
2021/11/11 05:10:08;;;;;;;30.77;17.27;;;1.30;89.20;;;;;;5075754;28;20100;-37
2021/11/11 05:12:34;;;;;;;30.08;17.00;;;1.30;89.10;;;;;;5076113;28;20518;-37
2021/11/11 05:14:59;;;;;;;27.45;15.73;;;1.30;89.00;;;;;;5075738;28;20060;-37
2021/11/11 05:17:25;;;;;;;27.75;17.45;;;1.20;89.10;;;;;;5075757;28;20028;-37
2021/11/11 05:19:51;;;;;;;26.27;16.88;;;1.30;89.20;;;;;;5075636;28;20032;-37
2021/11/11 05:22:17;;;;;;;29.20;17.33;;;1.30;89.30;;;;;;5075834;28;20028;-38
2021/11/11 05:24:43;;;;;;;27.75;14.82;;;1.30;89.30;;;;;;5075563;28;20020;-37
2021/11/11 05:27:11;;;;;;;24.08;14.93;;;1.30;89.30;;;;;;5075939;28;20052;-38
2021/11/11 05:29:37;;;;;;;27.55;16.50;;;1.30;89.40;;;;;;5075738;28;20145;-37
2021/11/11 05:32:03;;;;;;;30.60;16.45;;;1.30;89.30;;;;;;5075576;28;20107;-37
2021/11/11 05:34:28;;;;;;;32.22;16.33;;;1.30;89.30;;;;;;5075925;28;20028;-37
2021/11/11 05:36:54;;;;;;;27.50;15.82;;;1.30;89.20;;;;;;5075592;28;20460;-37
2021/11/11 05:39:20;;;;;;;27.52;14.27;;;1.20;89.40;;;;;;5075529;28;20020;-37
2021/11/11 05:41:46;;;;;;;30.00;15.90;;;1.30;89.60;;;;;;5075660;28;20452;-37
2021/11/11 05:44:11;;;;;;;28.20;15.95;;;1.30;89.60;;;;;;5075457;28;20024;-37
2021/11/11 05:46:37;;;;;;;35.72;17.73;;;1.30;89.40;;;;;;5075541;28;20025;-37
2021/11/11 05:49:02;;;;;;;28.23;15.23;;;1.20;89.40;;;;;;5075563;28;20148;-37
2021/11/11 05:51:28;;;;;;;34.75;17.02;;;1.20;89.40;;;;;;5075201;28;20056;-37
2021/11/11 05:53:54;;;;;;;30.23;16.95;;;1.20;89.50;;;;;;5075241;28;20028;-37
2021/11/11 05:56:20;;;;;;;32.92;16.58;;;1.30;89.60;;;;;;5075001;28;20054;-37
2021/11/11 05:58:45;;;;;;;29.42;15.90;;;1.30;89.70;;;;;;5075693;28;20016;-37
2021/11/11 06:01:11;;;;;;;28.52;15.82;;;1.30;89.80;;;;;;5075016;28;20024;-37
2021/11/11 06:03:37;;;;;;;28.55;15.85;;;1.30;89.80;;;;;;5074769;28;20020;-37
2021/11/11 06:06:03;;;;;;;28.83;15.45;;;1.30;89.80;;;;;;5074982;28;20051;-37
2021/11/11 06:08:29;;;;;;;31.40;16.45;;;1.30;89.90;;;;;;5074767;28;20487;-37
2021/11/11 06:10:54;;;;;;;33.00;16.15;;;1.30;89.70;;;;;;5074940;28;20033;-37
2021/11/11 06:13:22;;;;;;;32.63;16.92;;;1.30;89.80;;;;;;5073870;28;20435;-37
2021/11/11 06:15:48;;;;;;;31.20;17.02;;;1.40;89.90;;;;;;5074701;28;20027;-37
2021/11/11 06:18:15;;;;;;;32.67;16.83;;;1.40;90.10;;;;;;5074188;28;20063;-37
2021/11/11 06:20:45;;;;;;;34.72;16.83;;;1.70;90.00;;;;;;5074440;28;20050;-38
2021/11/11 06:23:11;;;;;;;26.48;16.63;;;1.60;89.80;;;;;;5074201;28;20028;-37
2021/11/11 06:25:37;;;;;;;29.20;16.73;;;1.60;90.00;;;;;;5073905;28;20082;-37
2021/11/11 06:28:03;;;;;;;32.38;16.55;;;1.60;90.20;;;;;;5073837;28;20054;-37
2021/11/11 06:30:29;;;;;;;38.95;18.80;;;1.70;90.50;;;;;;5074132;28;20173;-37
2021/11/11 06:32:54;;;;;;;40.42;18.50;;;1.80;90.40;;;;;;5074486;28;20103;-37
2021/11/11 06:35:20;;;;;;;39.05;18.35;;;1.80;90.50;;;;;;5074203;28;20028;-37
2021/11/11 06:37:46;;;;;;;32.60;17.33;;;1.80;90.60;;;;;;5074051;28;20099;-37
2021/11/11 06:40:12;;;;;;;28.50;16.50;;;1.70;90.50;;;;;;5074080;28;20025;-37
2021/11/11 06:42:38;;;;;;;35.08;18.15;;;1.70;90.60;;;;;;5074724;28;20025;-38
2021/11/11 06:45:11;;;;;;;33.78;17.23;;;1.60;90.50;;;;;;5075059;28;20044;-38
2021/11/11 06:47:38;;;;;;;36.97;17.75;;;1.70;90.50;;;;;;5074245;28;20035;-38
2021/11/11 06:50:04;;;;;;;36.40;18.45;;;1.70;90.50;;;;;;5075987;28;20028;-37
2021/11/11 06:52:30;;;;;;;38.65;16.98;;;1.70;90.50;;;;;;5075237;28;20114;-38
2021/11/11 06:54:56;;;;;;;32.45;18.48;;;1.70;90.60;;;;;;5074248;28;20020;-37
2021/11/11 06:57:21;;;;;;;34.00;18.30;;;1.70;90.60;;;;;;5073654;28;20067;-37
2021/11/11 06:59:48;;;;;;;32.35;18.30;;;1.70;90.60;;;;;;5073310;28;20020;-37
2021/11/11 07:02:14;;;;;;;34.50;17.45;;;1.80;90.50;;;;;;5074531;28;20028;-37
2021/11/11 07:04:39;;;;;;;35.58;17.25;;;1.80;90.50;;;;;;5073612;28;20036;-37
2021/11/11 07:07:05;;;;;;;36.53;16.60;;;1.80;90.40;;;;;;5071937;28;20076;-38
2021/11/11 07:09:31;;;;;;;33.10;16.73;;;1.80;90.20;;;;;;5072086;28;20055;-38
2021/11/11 07:11:57;;;;;;;27.73;17.17;;;1.80;90.10;;;;;;5073334;28;20040;-37
2021/11/11 07:14:23;;;;;;;31.38;16.58;;;1.80;90.10;;;;;;5072532;28;20385;-38
2021/11/11 07:16:49;;;;;;;30.95;16.70;;;1.90;90.10;;;;;;5074252;28;20150;-39
2021/11/11 07:19:15;;;;;;;35.00;18.17;;;1.90;89.90;;;;;;5075464;28;20031;-38
2021/11/11 07:21:41;;;;;;;31.00;17.67;;;1.90;89.80;;;;;;5075655;28;20020;-40
2021/11/11 07:24:07;;;;;;;28.75;17.08;;;2.10;89.90;;;;;;5073660;28;20027;-40
2021/11/11 07:26:32;;;;;;;31.70;17.77;;;2.10;89.30;;;;;;5073039;28;20522;-36
2021/11/11 07:28:58;;;;;;;31.33;18.08;;;2.10;89.30;;;;;;5073913;28;20051;-36
2021/11/11 07:31:25;;;;;;;60.10;30.95;;;2.10;89.40;;;;;;5072933;28;20452;-37
2021/11/11 07:33:52;;;;;;;39.42;18.88;;;2.10;89.40;;;;;;5072785;28;20021;-37
2021/11/11 07:36:19;;;;;;;43.20;20.95;;;2.20;89.30;;;;;;5072841;28;20104;-38
2021/11/11 07:38:45;;;;;;;37.85;19.80;;;2.30;88.70;;;;;;5072997;28;20024;-37
2021/11/11 07:41:11;;;;;;;39.38;19.88;;;2.20;88.20;;;;;;5071613;28;20021;-37
2021/11/11 07:43:36;;;;;;;35.45;19.08;;;2.20;88.10;;;;;;5073329;28;20107;-37
2021/11/11 07:46:06;;;;;;;38.83;19.88;;;2.30;88.00;;;;;;5072722;28;20511;-38
2021/11/11 07:48:34;;;;;;;36.88;17.23;;;2.30;87.70;;;;;;5072770;28;20028;-37
2021/11/11 07:51:00;;;;;;;33.95;16.92;;;2.40;87.70;;;;;;5073289;28;20032;-37
2021/11/11 07:53:26;;;;;;;38.35;18.38;;;2.50;87.40;;;;;;5073102;28;20052;-38
2021/11/11 07:55:52;;;;;;;36.17;19.08;;;2.50;87.30;;;;;;5072750;28;20028;-39
2021/11/11 07:58:18;;;;;;;33.72;17.17;;;2.60;87.30;;;;;;5072590;28;20021;-38
2021/11/11 08:00:44;;;;;;;34.60;17.60;;;2.90;87.30;;;;;;5072534;28;20453;-37
2021/11/11 08:03:12;;;;;;;24.75;15.70;;;3.00;86.90;;;;;;5072573;28;20064;-38
2021/11/11 08:05:39;;;;;;;39.47;20.13;;;3.20;86.60;;;;;;5071898;28;20182;-37
2021/11/11 08:08:05;;;;;;;30.63;17.45;;;3.30;86.20;;;;;;5072426;28;20541;-37
2021/11/11 08:10:32;;;;;;;32.58;15.52;;;3.60;86.20;;;;;;5071826;28;20021;-37
2021/11/11 08:12:58;;;;;;;29.00;15.07;;;3.70;85.40;;;;;;5072410;28;20021;-37
2021/11/11 08:15:24;;;;;;;28.60;18.30;;;3.80;85.00;;;;;;5072093;28;20043;-39
2021/11/11 08:17:53;;;;;;;24.67;15.20;;;4.20;84.60;;;;;;5072633;28;20381;-40
2021/11/11 08:20:21;;;;;;;23.77;14.15;;;4.00;84.30;;;;;;5072464;28;20017;-37
2021/11/11 08:22:48;;;;;;;33.03;14.75;;;4.30;83.70;;;;;;5071702;28;20016;-37
2021/11/11 08:25:16;;;;;;;31.75;16.35;;;4.30;83.30;;;;;;5075170;28;20028;-37
2021/11/11 08:27:43;;;;;;;31.67;16.23;;;4.50;82.90;;;;;;5076639;28;20043;-37
2021/11/11 08:30:13;;;;;;;26.60;15.95;;;4.50;82.10;;;;;;5077231;28;20112;-37
2021/11/11 08:32:40;;;;;;;32.00;14.30;;;4.80;81.90;;;;;;5076607;28;20036;-38
2021/11/11 08:35:07;;;;;;;32.67;16.08;;;4.80;82.20;;;;;;5078236;28;20028;-37
2021/11/11 08:37:33;;;;;;;39.47;15.02;;;5.00;82.40;;;;;;5076641;28;20035;-37
2021/11/11 08:39:59;;;;;;;29.75;14.82;;;6.00;78.10;;;;;;5077299;28;20021;-38
2021/11/11 08:42:25;;;;;;;27.67;15.73;;;5.70;77.20;;;;;;5075613;28;20428;-38
2021/11/11 08:44:51;;;;;;;26.25;15.05;;;5.70;79.30;;;;;;5076080;28;20024;-37
2021/11/11 08:47:19;;;;;;;29.10;16.33;;;5.70;78.80;;;;;;5074365;28;20037;-40
2021/11/11 08:49:47;;;;;;;26.25;15.45;;;5.90;78.90;;;;;;5075313;28;20361;-38
2021/11/11 08:52:15;;;;;;;35.08;15.23;;;6.10;78.50;;;;;;5076316;28;20036;-38
2021/11/11 08:54:41;;;;;;;26.95;16.02;;;6.30;79.30;;;;;;5076120;28;20040;-37
2021/11/11 08:57:08;;;;;;;26.98;15.80;;;7.10;77.20;;;;;;5074927;28;20040;-38
2021/11/11 08:59:34;;;;;;;23.25;14.00;;;7.60;73.60;;;;;;5075920;28;20035;-37
2021/11/11 09:02:01;;;;;;;29.33;15.32;;;7.60;74.60;;;;;;5075985;28;20029;-39
2021/11/11 09:04:27;;;;;;;26.42;15.90;;;7.90;73.40;;;;;;5075711;28;20027;-38
2021/11/11 09:06:53;;;;;;;24.08;14.00;;;8.70;71.50;;;;;;5075670;28;20052;-38
2021/11/11 09:09:20;;;;;;;27.13;15.82;;;9.10;69.20;;;;;;5077216;28;20425;-39
2021/11/11 09:11:47;;;;;;;25.70;16.38;;;9.50;68.00;;;;;;5075332;28;20036;-38
2021/11/11 09:14:13;;;;;;;23.90;15.48;;;9.50;67.00;;;;;;5075514;28;20397;-39
2021/11/11 09:16:40;;;;;;;26.13;16.50;;;9.40;68.20;;;;;;5075675;28;20517;-38
2021/11/11 09:19:06;;;;;;;28.10;16.55;;;9.40;67.30;;;;;;5075187;28;20082;-38
2021/11/11 09:21:32;;;;;;;30.00;16.08;;;9.10;69.00;;;;;;5074275;28;20024;-38
2021/11/11 09:23:58;;;;;;;33.42;16.67;;;8.90;70.10;;;;;;5073939;28;20472;-38
2021/11/11 09:26:25;;;;;;;27.10;15.95;;;9.30;68.20;;;;;;5076578;28;20033;-37
2021/11/11 09:28:51;;;;;;;27.17;15.60;;;9.30;69.70;;;;;;5077006;28;20026;-39
2021/11/11 09:31:18;;;;;;;29.73;16.73;;;9.10;71.60;;;;;;5075320;28;20346;-37
2021/11/11 09:33:46;;;;;;;31.05;16.63;;;9.00;69.10;;;;;;5075278;28;20104;-39
2021/11/11 09:36:13;;;;;;;33.40;16.17;;;8.20;72.80;;;;;;5074606;28;20559;-39
2021/11/11 09:38:39;;;;;;;32.88;17.70;;;7.20;75.60;;;;;;5074961;28;20033;-38
2021/11/11 09:41:06;;;;;;;32.38;19.55;;;6.50;79.40;;;;;;5074927;28;20039;-38
2021/11/11 09:43:32;;;;;;;32.72;19.95;;;6.10;80.90;;;;;;5075120;28;20032;-38
2021/11/11 09:45:58;;;;;;;33.88;20.02;;;6.20;81.80;;;;;;5075002;28;20025;-38
2021/11/11 09:48:25;;;;;;;44.72;20.75;;;6.30;81.20;;;;;;5074421;28;20028;-38
2021/11/11 09:50:51;;;;;;;46.60;21.95;;;6.70;80.40;;;;;;5074700;28;20039;-38
2021/11/11 09:53:23;;;;;;;40.05;20.58;;;7.00;79.90;;;;;;5074811;28;20020;-38
2021/11/11 09:58:52;;;;;;;32.85;20.20;;;7.30;79.90;;;;;;5074842;28;20035;-38
2021/11/11 10:01:21;;;;;;;36.13;20.67;;;7.30;79.00;;;;;;5074659;28;20021;-38
2021/11/11 10:03:48;;;;;;;43.03;20.10;;;7.20;79.00;;;;;;5074502;28;20033;-37
2021/11/11 10:06:17;;;;;;;39.50;21.92;;;7.40;79.50;;;;;;5074239;28;20048;-38
2021/11/11 10:08:48;;;;;;;34.00;16.58;;;7.80;78.60;;;;;;5074312;28;20097;-38
2021/11/11 10:11:29;;;;;;;36.53;19.52;;;7.80;77.50;;;;;;5074111;28;20114;-37
2021/11/11 10:13:58;;;;;;;42.08;22.25;;;7.60;78.50;;;;;;5074360;28;20024;-39
2021/11/11 10:16:26;;;;;;;43.72;21.73;;;7.90;78.40;;;;;;5074069;28;20032;-37
2021/11/11 10:18:55;;;;;;;41.03;21.70;;;7.80;78.40;;;;;;5072675;28;20024;-37
2021/11/11 10:21:45;;;;;;;44.05;23.23;;;8.00;77.90;;;;;;5074291;28;20183;-37
2021/11/11 10:24:14;;;;;;;47.72;22.30;;;7.90;78.40;;;;;;5074446;28;20425;-38
2021/11/11 10:26:42;;;;;;;44.17;22.90;;;8.20;78.10;;;;;;5073889;28;20115;-37
2021/11/11 10:29:30;;;;;;;41.17;21.60;;;8.30;77.80;;;;;;5073427;28;20028;-37
2021/11/11 10:32:01;;;;;;;42.58;23.30;;;8.30;77.60;;;;;;5074424;28;20377;-37
2021/11/11 10:34:27;;;;;;;47.67;23.15;;;8.60;77.50;;;;;;5073386;28;20111;-37
2021/11/11 10:36:54;;;;;;;50.47;22.67;;;9.20;74.90;;;;;;5071931;28;20163;-37
2021/11/11 10:39:32;;;;;;;47.00;23.67;;;9.30;74.00;;;;;;5073816;28;20050;-37
2021/11/11 10:42:12;;;;;;;43.58;21.90;;;9.30;74.50;;;;;;5073826;28;20424;-38
2021/11/11 10:44:37;;;;;;;39.45;21.40;;;9.80;73.00;;;;;;5073963;28;20448;-39
2021/11/11 10:47:07;;;;;;;42.65;22.35;;;9.70;72.50;;;;;;5073534;28;20111;-39
2021/11/11 10:49:37;;;;;;;39.38;20.45;;;9.30;74.90;;;;;;5072897;28;20486;-39
2021/11/11 10:52:38;;;;;;;40.42;22.15;;;9.60;73.90;;;;;;5055640;28;20035;-37
2021/11/11 10:55:15;;;;;;;39.92;21.13;;;9.60;74.30;;;;;;5031457;28;20022;-37
2021/11/11 10:57:52;;;;;;;49.45;23.00;;;9.80;72.60;;;;;;5067373;28;20028;-37
2021/11/11 11:00:33;;;;;;;44.78;24.95;;;9.70;73.80;;;;;;5073509;28;20380;-37
2021/11/11 11:03:04;;;;;;;43.85;23.00;;;9.50;74.50;;;;;;5073268;28;20017;-37
2021/11/11 11:05:32;;;;;;;;;;;10.00;73.00;;;;;;5073673;28;20028;-36
2021/11/11 11:08:07;;;;;;;48.25;25.55;;;10.30;72.20;;;;;;5073627;28;19938;-37
2021/11/11 11:10:35;;;;;;;41.25;22.08;;;10.40;71.40;;;;;;5073121;28;20035;-38
2021/11/11 11:13:14;;;;;;;40.17;24.25;;;10.40;72.10;;;;;;5073636;28;20028;-37
2021/11/11 11:15:47;;;;;;;42.88;24.60;;;10.20;71.50;;;;;;5072877;28;20075;-37
2021/11/11 11:18:15;;;;;;;43.05;24.13;;;10.30;71.80;;;;;;5072810;28;20024;-38
2021/11/11 11:20:42;;;;;;;45.00;23.85;;;10.30;71.50;;;;;;5072919;28;20111;-38
2021/11/11 11:23:12;;;;;;;41.75;23.77;;;10.70;70.00;;;;;;5072706;28;20496;-38
2021/11/11 11:25:38;;;;;;;42.00;23.02;;;10.50;70.50;;;;;;5072677;28;20020;-38
2021/11/11 11:28:28;;;;;;;43.47;23.23;;;10.60;70.70;;;;;;5072719;28;20039;-38
2021/11/11 11:30:56;;;;;;;39.47;23.88;;;10.60;71.10;;;;;;5072574;28;20027;-38
2021/11/11 11:33:34;;;;;;;40.10;22.45;;;10.30;71.40;;;;;;5073047;28;20127;-37
2021/11/11 11:36:01;;;;;;;34.67;22.02;;;10.20;72.30;;;;;;5073232;28;20032;-37
2021/11/11 11:38:28;;;;;;;44.38;23.48;;;10.50;71.50;;;;;;5072487;28;20031;-37
2021/11/11 11:40:55;;;;;;;41.22;23.92;;;10.80;70.60;;;;;;5073139;28;20132;-39
2021/11/11 11:43:30;;;;;;;41.38;22.92;;;10.80;70.40;;;;;;5072534;28;20095;-37
2021/11/11 11:46:15;;;;;;;42.15;22.63;;;10.80;70.30;;;;;;5072801;28;20039;-39
2021/11/11 11:48:42;;;;;;;44.38;23.95;;;10.50;70.80;;;;;;5071369;28;20031;-37
2021/11/11 11:51:10;;;;;;;38.72;21.83;;;10.00;72.70;;;;;;5072944;28;20032;-37
2021/11/11 11:53:46;;;;;;;34.95;18.90;;;10.00;73.30;;;;;;5072873;28;20025;-38
2021/11/11 11:56:23;;;;;;;37.25;19.42;;;9.90;72.50;;;;;;5071075;28;20032;-38
2021/11/11 11:59:05;;;;;;;42.40;20.58;;;9.60;73.70;;;;;;5072749;28;20036;-39
2021/11/11 12:02:12;;;;;;;45.22;21.45;;;10.00;72.70;;;;;;5071086;28;20035;-37
2021/11/11 12:12:49;;;;;;;32.63;18.85;;;10.40;70.30;;;;;;5072756;28;20086;-37
2021/11/11 12:15:25;;;;;;;39.15;18.55;;;10.30;70.80;;;;;;5072567;28;20017;-38
2021/11/11 12:29:59;;;;;;;31.92;18.98;;;10.20;70.80;;;;;;5072320;28;20036;-39
2021/11/11 12:38:33;;;;;;;36.95;18.35;;;10.70;70.20;;;;;;5071683;28;20035;-42
2021/11/11 12:41:09;;;;;;;40.42;21.00;;;10.70;70.40;;;;;;5071741;28;20086;-37
2021/11/11 12:43:35;;;;;;;55.28;23.02;;;10.30;70.50;;;;;;5072239;28;20492;-37
2021/11/11 12:46:01;;;;;;;38.63;19.25;;;10.30;71.20;;;;;;5072017;28;20048;-37
2021/11/11 12:48:26;;;;;;;38.47;21.42;;;10.30;71.40;;;;;;5072230;28;20103;-37
2021/11/11 12:50:59;;;;;;;32.88;18.55;;;10.20;71.30;;;;;;5072235;28;20025;-37
2021/11/11 12:53:45;;;;;;;35.97;19.67;;;10.20;71.50;;;;;;5071821;28;20059;-37
2021/11/11 12:56:17;;;;;;;40.63;20.40;;;10.10;71.50;;;;;;5071337;28;20021;-37
2021/11/11 12:58:50;;;;;;;38.72;20.55;;;10.30;71.30;;;;;;5071717;28;20020;-40
2021/11/11 13:01:20;;;;;;;40.30;20.42;;;10.30;71.00;;;;;;5071641;28;20016;-37
2021/11/11 13:04:01;;;;;;;39.35;19.40;;;10.20;71.50;;;;;;5071857;28;20044;-38
2021/11/11 13:06:42;;;;;;;;;;;10.20;71.90;;;;;;5071871;28;20366;-38
2021/11/11 13:09:18;;;;;;;38.28;20.15;;;10.10;72.30;;;;;;5071458;28;19904;-38
2021/11/11 13:11:51;;;;;;;47.78;23.75;;;10.10;72.00;;;;;;5071664;28;20024;-38
2021/11/11 13:14:21;;;;;;;40.88;21.63;;;10.20;72.00;;;;;;5075603;28;20020;-38
2021/11/11 13:16:58;;;;;;;42.92;20.73;;;10.20;71.60;;;;;;5075018;28;20024;-37
2021/11/11 13:19:37;;;;;;;46.20;20.90;;;10.10;72.40;;;;;;5075143;28;20029;-38
2021/11/11 13:22:22;;;;;;;37.28;19.88;;;10.10;72.50;;;;;;5075915;28;20023;-38
2021/11/11 13:28:21;;;;;;;39.17;22.63;;;10.00;72.80;;;;;;5076180;28;20182;-38
2021/11/11 16:25:13;;;;;;;50.42;25.52;;;9.10;78.20;;;;;;5070416;28;20033;-37
2021/11/11 16:27:39;;;;;;;58.72;24.55;;;9.30;76.90;;;;;;5072066;28;20520;-38
2021/11/11 16:30:14;;;;;;;52.40;26.15;;;9.30;76.80;;;;;;5071728;28;20086;-37
2021/11/11 16:32:41;;;;;;;48.83;25.40;;;9.30;77.00;;;;;;5072268;28;20033;-36